<?xml version="1.0" encoding="UTF-8" standalone="no" ?>
<gpx xmlns="http://www.topografix.com/GPX/1/1" xmlns:xsi="http://www.w3.org/2001/XMLSchema-instance" xsi:schemaLocation="http://www.topografix.com/GPX/1/1 http://www.topografix.com/GPX/1/1/gpx.xsd" version="1.1" creator="VisuGPX - https://www.visugpx.com">
  <metadata>
    <name>Pleucadeuc_StMarc_18-22km</name>
    <desc><![CDATA[gnerando idor:7083279_8057708]]></desc>
  </metadata>
  <trk>
    <name><![CDATA[Pleucadeuc_StMarc_18.3km-8057708]]></name>
    <extensions>
      <line xmlns="http://www.topografix.com/GPX/gpx_style/0/2">
        <color>0000FF</color>
        <width>4</width>
      </line>
    </extensions>
    <trkseg>
      <trkpt lat="47.75903" lon="-2.37485">
        <ele>70</ele>
        <time>2023-11-11T05:49:18Z</time>
      </trkpt>
      <trkpt lat="47.75897" lon="-2.37311">
        <ele>71</ele>
        <time>2023-11-11T05:51:54Z</time>
      </trkpt>
      <trkpt lat="47.76041" lon="-2.37259">
        <ele>66</ele>
        <time>2023-11-11T05:55:12Z</time>
      </trkpt>
      <trkpt lat="47.76304" lon="-2.36955">
        <ele>62</ele>
        <time>2023-11-11T06:02:37Z</time>
      </trkpt>
      <trkpt lat="47.7648" lon="-2.36435">
        <ele>44</ele>
        <time>2023-11-11T06:11:19Z</time>
      </trkpt>
      <trkpt lat="47.76489" lon="-2.36058">
        <ele>28</ele>
        <time>2023-11-11T06:16:57Z</time>
      </trkpt>
      <trkpt lat="47.76405" lon="-2.35869">
        <ele>30</ele>
        <time>2023-11-11T06:20:20Z</time>
      </trkpt>
      <trkpt lat="47.76575" lon="-2.35689">
        <ele>24</ele>
        <time>2023-11-11T06:24:59Z</time>
      </trkpt>
      <trkpt lat="47.76659" lon="-2.35255">
        <ele>22</ele>
        <time>2023-11-11T06:31:44Z</time>
      </trkpt>
      <trkpt lat="47.76809" lon="-2.35285">
        <ele>23</ele>
        <time>2023-11-11T06:35:06Z</time>
      </trkpt>
      <trkpt lat="47.76852" lon="-2.35247">
        <ele>19</ele>
        <time>2023-11-11T06:36:13Z</time>
      </trkpt>
      <trkpt lat="47.7689" lon="-2.35277">
        <ele>17</ele>
        <time>2023-11-11T06:37:10Z</time>
      </trkpt>
      <trkpt lat="47.77028" lon="-2.35144">
        <ele>11</ele>
        <time>2023-11-11T06:40:49Z</time>
      </trkpt>
      <trkpt lat="47.7714" lon="-2.35337">
        <ele>14</ele>
        <time>2023-11-11T06:44:38Z</time>
      </trkpt>
      <trkpt lat="47.77273" lon="-2.35328">
        <ele>17</ele>
        <time>2023-11-11T06:47:36Z</time>
      </trkpt>
      <trkpt lat="47.77377" lon="-2.35448">
        <ele>20</ele>
        <time>2023-11-11T06:50:31Z</time>
      </trkpt>
      <trkpt lat="47.77726" lon="-2.35414">
        <ele>36</ele>
        <time>2023-11-11T06:58:18Z</time>
      </trkpt>
      <trkpt lat="47.77761" lon="-2.35508">
        <ele>31</ele>
        <time>2023-11-11T06:59:55Z</time>
      </trkpt>
      <trkpt lat="47.77844" lon="-2.35504">
        <ele>31</ele>
        <time>2023-11-11T07:01:45Z</time>
      </trkpt>
      <trkpt lat="47.78058" lon="-2.35337">
        <ele>45</ele>
        <time>2023-11-11T07:07:08Z</time>
      </trkpt>
      <trkpt lat="47.78297" lon="-2.35302">
        <ele>58</ele>
        <time>2023-11-11T07:12:28Z</time>
      </trkpt>
      <trkpt lat="47.78427" lon="-2.35719">
        <ele>77</ele>
        <time>2023-11-11T07:19:20Z</time>
      </trkpt>
      <trkpt lat="47.78239" lon="-2.36178">
        <ele>68</ele>
        <time>2023-11-11T07:27:22Z</time>
      </trkpt>
      <trkpt lat="47.78556" lon="-2.36006">
        <ele>77</ele>
        <time>2023-11-11T07:34:53Z</time>
      </trkpt>
      <trkpt lat="47.78571" lon="-2.35856">
        <ele>81</ele>
        <time>2023-11-11T07:37:09Z</time>
      </trkpt>
      <trkpt lat="47.78669" lon="-2.35856">
        <ele>89</ele>
        <time>2023-11-11T07:39:20Z</time>
      </trkpt>
      <trkpt lat="47.78888" lon="-2.35877">
        <ele>87</ele>
        <time>2023-11-11T07:44:12Z</time>
      </trkpt>
      <trkpt lat="47.79073" lon="-2.36003">
        <ele>73</ele>
        <time>2023-11-11T07:48:44Z</time>
      </trkpt>
      <trkpt lat="47.79101" lon="-2.35707">
        <ele>67</ele>
        <time>2023-11-11T07:53:12Z</time>
      </trkpt>
      <trkpt lat="47.79179" lon="-2.35593">
        <ele>61</ele>
        <time>2023-11-11T07:55:38Z</time>
      </trkpt>
      <trkpt lat="47.79793" lon="-2.3635">
        <ele>91</ele>
        <time>2023-11-11T08:13:22Z</time>
      </trkpt>
      <trkpt lat="47.79724" lon="-2.36594">
        <ele>89</ele>
        <time>2023-11-11T08:17:19Z</time>
      </trkpt>
      <trkpt lat="47.79776" lon="-2.36787">
        <ele>93</ele>
        <time>2023-11-11T08:20:25Z</time>
      </trkpt>
      <trkpt lat="47.79986" lon="-2.36753">
        <ele>101</ele>
        <time>2023-11-11T08:25:07Z</time>
      </trkpt>
      <trkpt lat="47.79984" lon="-2.37264">
        <ele>98</ele>
        <time>2023-11-11T08:32:45Z</time>
      </trkpt>
      <trkpt lat="47.80128" lon="-2.37577">
        <ele>91</ele>
        <time>2023-11-11T08:38:25Z</time>
      </trkpt>
      <trkpt lat="47.80041" lon="-2.37658">
        <ele>90</ele>
        <time>2023-11-11T08:40:42Z</time>
      </trkpt>
      <trkpt lat="47.80035" lon="-2.38002">
        <ele>87</ele>
        <time>2023-11-11T08:45:51Z</time>
      </trkpt>
      <trkpt lat="47.79468" lon="-2.38143">
        <ele>65</ele>
        <time>2023-11-11T08:58:38Z</time>
      </trkpt>
      <trkpt lat="47.79148" lon="-2.38075">
        <ele>70</ele>
        <time>2023-11-11T09:05:49Z</time>
      </trkpt>
      <trkpt lat="47.79231" lon="-2.39032">
        <ele>76</ele>
        <time>2023-11-11T09:20:14Z</time>
      </trkpt>
      <trkpt lat="47.79003" lon="-2.39341">
        <ele>77</ele>
        <time>2023-11-11T09:27:06Z</time>
      </trkpt>
      <trkpt lat="47.78949" lon="-2.39397">
        <ele>68</ele>
        <time>2023-11-11T09:28:34Z</time>
      </trkpt>
      <trkpt lat="47.78923" lon="-2.39482">
        <ele>56</ele>
        <time>2023-11-11T09:29:57Z</time>
      </trkpt>
      <trkpt lat="47.7875" lon="-2.39504">
        <ele>33</ele>
        <time>2023-11-11T09:33:49Z</time>
      </trkpt>
      <trkpt lat="47.78251" lon="-2.3853">
        <ele>19</ele>
        <time>2023-11-11T09:52:07Z</time>
      </trkpt>
      <trkpt lat="47.78058" lon="-2.38663">
        <ele>16</ele>
        <time>2023-11-11T09:56:51Z</time>
      </trkpt>
      <trkpt lat="47.77928" lon="-2.38658">
        <ele>16</ele>
        <time>2023-11-11T09:59:45Z</time>
      </trkpt>
      <trkpt lat="47.77435" lon="-2.39302">
        <ele>21</ele>
        <time>2023-11-11T10:14:20Z</time>
      </trkpt>
      <trkpt lat="47.77207" lon="-2.39306">
        <ele>22</ele>
        <time>2023-11-11T10:19:24Z</time>
      </trkpt>
      <trkpt lat="47.77106" lon="-2.39418">
        <ele>31</ele>
        <time>2023-11-11T10:22:12Z</time>
      </trkpt>
      <trkpt lat="47.77166" lon="-2.39705">
        <ele>44</ele>
        <time>2023-11-11T10:26:42Z</time>
      </trkpt>
      <trkpt lat="47.77074" lon="-2.39997">
        <ele>62</ele>
        <time>2023-11-11T10:31:31Z</time>
      </trkpt>
      <trkpt lat="47.77008" lon="-2.40053">
        <ele>67</ele>
        <time>2023-11-11T10:33:13Z</time>
      </trkpt>
      <trkpt lat="47.77034" lon="-2.40345">
        <ele>72</ele>
        <time>2023-11-11T10:37:37Z</time>
      </trkpt>
      <trkpt lat="47.77337" lon="-2.40474">
        <ele>70</ele>
        <time>2023-11-11T10:44:37Z</time>
      </trkpt>
      <trkpt lat="47.77397" lon="-2.40864">
        <ele>78</ele>
        <time>2023-11-11T10:50:36Z</time>
      </trkpt>
      <trkpt lat="47.77449" lon="-2.4101">
        <ele>80</ele>
        <time>2023-11-11T10:53:04Z</time>
      </trkpt>
      <trkpt lat="47.77391" lon="-2.41074">
        <ele>80</ele>
        <time>2023-11-11T10:54:41Z</time>
      </trkpt>
      <trkpt lat="47.77348" lon="-2.40989">
        <ele>80</ele>
        <time>2023-11-11T10:56:16Z</time>
      </trkpt>
      <trkpt lat="47.77184" lon="-2.40954">
        <ele>79</ele>
        <time>2023-11-11T10:59:57Z</time>
      </trkpt>
      <trkpt lat="47.76985" lon="-2.40873">
        <ele>78</ele>
        <time>2023-11-11T11:04:33Z</time>
      </trkpt>
      <trkpt lat="47.76667" lon="-2.41019">
        <ele>70</ele>
        <time>2023-11-11T11:11:57Z</time>
      </trkpt>
      <trkpt lat="47.76679" lon="-2.40504">
        <ele>73</ele>
        <time>2023-11-11T11:19:39Z</time>
      </trkpt>
      <trkpt lat="47.76613" lon="-2.40439">
        <ele>70</ele>
        <time>2023-11-11T11:21:25Z</time>
      </trkpt>
      <trkpt lat="47.76517" lon="-2.40113">
        <ele>62</ele>
        <time>2023-11-11T11:26:44Z</time>
      </trkpt>
      <trkpt lat="47.76618" lon="-2.39684">
        <ele>56</ele>
        <time>2023-11-11T11:33:32Z</time>
      </trkpt>
      <trkpt lat="47.76673" lon="-2.39435">
        <ele>50</ele>
        <time>2023-11-11T11:37:27Z</time>
      </trkpt>
      <trkpt lat="47.7659" lon="-2.39461">
        <ele>49</ele>
        <time>2023-11-11T11:39:20Z</time>
      </trkpt>
      <trkpt lat="47.76422" lon="-2.39517">
        <ele>50</ele>
        <time>2023-11-11T11:43:10Z</time>
      </trkpt>
      <trkpt lat="47.7607" lon="-2.38439">
        <ele>68</ele>
        <time>2023-11-11T12:01:05Z</time>
      </trkpt>
      <trkpt lat="47.75969" lon="-2.38023">
        <ele>68</ele>
        <time>2023-11-11T12:07:41Z</time>
      </trkpt>
      <trkpt lat="47.75946" lon="-2.37796">
        <ele>70</ele>
        <time>2023-11-11T12:11:07Z</time>
      </trkpt>
      <trkpt lat="47.75912" lon="-2.37628">
        <ele>70</ele>
        <time>2023-11-11T12:13:45Z</time>
      </trkpt>
      <trkpt lat="47.75894" lon="-2.37482">
        <ele>70</ele>
        <time>2023-11-11T12:15:58Z</time>
      </trkpt>
      <trkpt lat="47.75891" lon="-2.37461">
        <ele>70</ele>
        <time>2023-11-11T12:16:17Z</time>
      </trkpt>
    </trkseg>
  </trk>
</gpx>